CTSO2: Bird Creek At Catoosa

                                SHEF ID:       CTSO2     Bird Ck at State Highway 266 nea
STATION TYPE:
Regulating: Stage = 26.00, Flow = 20953

STAGE STAGE(2) RIV-FLOW WTR-TEMP DIS-OXY PH CONDUCT BAT-LOAD
ft ft cfs F mg/l su umho/cm volt
Ccp-Rev Ccp-Rev Ccp-Rev Ccp-Rev Ccp-Rev Ccp-Rev Ccp-Rev Ccp-Rev
(America/Chicago)
04/29 00:00 5.49 3.42 657 70.09 7.33 7.83 393 11.96
04/29 01:00 5.44 3.42 631 69.80 7.32 7.85 403 11.91
04/29 02:00 5.37 3.42 596 69.57 7.30 7.85 405 12.13
04/29 03:00 5.33 3.43 576 69.33 7.29 7.85 402 12.15
04/29 04:00 5.27 3.42 547 69.04 7.19 7.86 395 12.16
04/29 05:00 5.22 3.43 524 68.76 7.27 7.85 385 11.97
04/29 06:00 5.18 3.43 506 68.43 7.27 7.91 380 11.85
04/29 07:00 5.16 3.42 498 68.32 7.38 7.87 378 11.87
04/29 08:00 5.13 3.43 484 68.32 7.37 7.88 375 12.80
04/29 09:00 5.12 3.42 480 68.43 7.48 7.86 367 13.17
04/29 10:00 5.13 3.42 484 68.61 7.48 7.86 368 13.16
04/29 11:00 5.10 3.42 472 68.86 7.61 7.84 367 12.93
04/29 12:00 5.11 3.42 476 69.15 7.58 7.85 363 12.63
04/29 13:00 5.10 3.42 472 69.48 7.65 7.87 367 12.86
04/29 14:00 5.10 3.42 472 69.76 7.67 7.90 371 12.94
04/29 15:00 5.07 3.42 459 70.03 7.77 7.89 371 12.53
04/29 16:00 5.09 3.42 467 70.16 7.72 7.86 383 12.60
04/29 17:00 5.07 3.42 459 70.18 7.79 7.89 389 12.57
04/29 18:00 5.08 3.42 463 70.09 7.80 7.88 399 12.37
04/29 19:00 5.09 3.43 467 69.98 7.80 7.84 407 12.65
04/29 20:00 5.07 3.42 459 69.94 7.86 7.86 408 12.57
04/29 21:00 5.09 3.42 467 69.91 7.86 7.87 411 12.21
04/29 22:00 5.09 3.42 467 69.85 7.81 7.87 412 12.00
04/29 23:00 ---- ---- ---- ---- ---- ---- ---- ----
Data processed at Thu 30Apr2026 04:21 GMT

NOTICE: If you are parsing this page

Please convert to using our Data API. Starting early 2026 we will be migrating to: https://water.usace.army.mil with modern pages rendered in JavaScript. When this migration completes you will no longer be able to scrape this page! CWMSDataAPI (CDA)

Timeseries IDs (TSIDs)

TSIDs used from left to right in the data table
CATB.Stage.Inst.1Hour.0.Ccp-Rev
CATB.Stage-Alt.Inst.1Hour.0.Ccp-Rev
CATB.Flow.Inst.1Hour.0.Ccp-Rev
CATB.Temp-Water.Inst.1Hour.0.Ccp-Rev
CATB.Conc-DO.Inst.1Hour.0.Ccp-Rev
CATB.pH.Inst.1Hour.0.Ccp-Rev
CATB.Cond-Water.Inst.1Hour.0.Ccp-Rev
CATB.Volt-Battery Load.Inst.1Hour.0.Ccp-Rev

                            

All information presented herein is the property of the government of the United States of America and may be revised or deleted at any time without prior notice. Dissemination of this information without the expressed written consent of the Public Affairs Office, Tulsa District U.S. Army Corps of Engineers is strictly prohibited. These data are gathered electronically and, as presented, have NOT undergone any form of quality control. These data are NOT guaranteed to be valid or correct.